MUCU/SCU METAR and TAF weather

Enter ICAO airport designator
Station Type Date Time Source
MUCU METAR 2021/07/26 14:50 UTC NOAA

MUCU 261450Z 17005KT 140V210 9000 FEW020 29/25 Q1016


Station Type Date Time Source
MUCU Decoded METAR 2021/07/26 14:50 UTC NOAA

Santiago De Cuba, Oriente, Cuba (MUCU) 19-58N 075-51W 55M
Jul 26, 2021 - 10:50 AM EDT / 2021.07.26 1450 UTC
Wind: from the S (170 degrees) at 6 MPH (5 KT) (direction variable):0
Visibility: 5 mile(s):0
Sky conditions: mostly clear
Temperature: 84 F (29 C)
Dew Point: 77 F (25 C)
Relative Humidity: 79%
Pressure (altimeter): 30.00 in. Hg (1016 hPa)
ob: MUCU 261450Z 17005KT 140V210 9000 FEW020 29/25 Q1016
cycle: 15

Station Type Date Time Source
MUCU TAF 2021/07/26 12:03 UTC NOAA

TAF MUCU 261100Z 2612/2712 36006KT 9000 SCT020
BECMG 2615/2617 18008KT
TEMPO 2618/2624 VRB10KT 5000 TSRA SCT018CB BKN020
BECMG 2701/2703 VRB03KT

Example: see airport list